sensor_id;sensor_type;location;lat;lon;timestamp;P1;durP1;ratioP1;P2;durP2;ratioP2
75342;SDS011;63936;51.006;13.764;2023-03-12T00:00:03;8;;;3;;
75342;SDS011;63936;51.006;13.764;2023-03-12T00:02:01;8;;;3;;
75342;SDS011;63936;51.006;13.764;2023-03-12T00:04:01;6;;;3;;
75342;SDS011;63936;51.006;13.764;2023-03-12T00:06:01;9;;;4;;
75342;SDS011;63936;51.006;13.764;2023-03-12T00:08:01;9;;;5;;
75342;SDS011;63936;51.006;13.764;2023-03-12T00:10:02;9;;;4;;
75342;SDS011;63936;51.006;13.764;2023-03-12T00:12:01;8;;;4;;
75342;SDS011;63936;51.006;13.764;2023-03-12T00:14:01;10;;;3;;
75342;SDS011;63936;51.006;13.764;2023-03-12T00:16:02;10;;;3;;
75342;SDS011;63936;51.006;13.764;2023-03-12T00:18:01;10;;;4;;
75342;SDS011;63936;51.006;13.764;2023-03-12T00:20:02;8;;;4;;
75342;SDS011;63936;51.006;13.764;2023-03-12T00:22:01;8;;;4;;
75342;SDS011;63936;51.006;13.764;2023-03-12T00:24:01;8;;;4;;
75342;SDS011;63936;51.006;13.764;2023-03-12T00:26:02;8;;;4;;
75342;SDS011;63936;51.006;13.764;2023-03-12T00:28:01;8;;;4;;
75342;SDS011;63936;51.006;13.764;2023-03-12T00:30:02;8;;;4;;
75342;SDS011;63936;51.006;13.764;2023-03-12T00:32:01;9;;;4;;
75342;SDS011;63936;51.006;13.764;2023-03-12T00:34:01;9;;;4;;
75342;SDS011;63936;51.006;13.764;2023-03-12T00:36:01;8;;;4;;
75342;SDS011;63936;51.006;13.764;2023-03-12T00:38:01;8;;;4;;
75342;SDS011;63936;51.006;13.764;2023-03-12T00:40:02;10;;;4;;
75342;SDS011;63936;51.006;13.764;2023-03-12T00:42:01;7;;;3;;
75342;SDS011;63936;51.006;13.764;2023-03-12T00:44:01;7;;;3;;
75342;SDS011;63936;51.006;13.764;2023-03-12T00:46:01;9;;;4;;
75342;SDS011;63936;51.006;13.764;2023-03-12T00:48:01;7;;;3;;
75342;SDS011;63936;51.006;13.764;2023-03-12T00:50:02;7;;;3;;
75342;SDS011;63936;51.006;13.764;2023-03-12T00:52:01;9;;;4;;
75342;SDS011;63936;51.006;13.764;2023-03-12T00:54:01;6;;;3;;
75342;SDS011;63936;51.006;13.764;2023-03-12T00:56:01;6;;;3;;
75342;SDS011;63936;51.006;13.764;2023-03-12T00:58:01;9;;;3;;
75342;SDS011;63936;51.006;13.764;2023-03-12T01:00:02;6;;;3;;
75342;SDS011;63936;51.006;13.764;2023-03-12T01:02:03;6;;;3;;
75342;SDS011;63936;51.006;13.764;2023-03-12T01:04:03;7;;;3;;
75342;SDS011;63936;51.006;13.764;2023-03-12T01:06:04;7;;;3;;
75342;SDS011;63936;51.006;13.764;2023-03-12T01:08:03;7;;;3;;
75342;SDS011;63936;51.006;13.764;2023-03-12T01:10:08;7;;;3;;
75342;SDS011;63936;51.006;13.764;2023-03-12T01:12:02;6;;;3;;
75342;SDS011;63936;51.006;13.764;2023-03-12T01:14:03;6;;;3;;
75342;SDS011;63936;51.006;13.764;2023-03-12T01:16:02;8;;;3;;
75342;SDS011;63936;51.006;13.764;2023-03-12T01:18:02;8;;;3;;
75342;SDS011;63936;51.006;13.764;2023-03-12T01:20:04;7;;;3;;
75342;SDS011;63936;51.006;13.764;2023-03-12T01:22:02;7;;;3;;
75342;SDS011;63936;51.006;13.764;2023-03-12T01:24:03;5;;;2;;
75342;SDS011;63936;51.006;13.764;2023-03-12T01:26:02;5;;;2;;
75342;SDS011;63936;51.006;13.764;2023-03-12T01:28:01;5;;;2;;
75342;SDS011;63936;51.006;13.764;2023-03-12T01:30:03;7;;;3;;
75342;SDS011;63936;51.006;13.764;2023-03-12T01:32:02;8;;;4;;
75342;SDS011;63936;51.006;13.764;2023-03-12T01:34:01;8;;;3;;
75342;SDS011;63936;51.006;13.764;2023-03-12T01:36:02;8;;;3;;
75342;SDS011;63936;51.006;13.764;2023-03-12T01:38:04;7;;;3;;
75342;SDS011;63936;51.006;13.764;2023-03-12T01:40:06;7;;;3;;
75342;SDS011;63936;51.006;13.764;2023-03-12T01:42:03;9;;;4;;
75342;SDS011;63936;51.006;13.764;2023-03-12T01:44:05;9;;;4;;
75342;SDS011;63936;51.006;13.764;2023-03-12T01:46:06;7;;;4;;
75342;SDS011;63936;51.006;13.764;2023-03-12T01:48:03;7;;;4;;
75342;SDS011;63936;51.006;13.764;2023-03-12T01:50:08;8;;;3;;
75342;SDS011;63936;51.006;13.764;2023-03-12T01:52:04;6;;;3;;
75342;SDS011;63936;51.006;13.764;2023-03-12T01:54:04;6;;;3;;
75342;SDS011;63936;51.006;13.764;2023-03-12T01:56:03;8;;;3;;
75342;SDS011;63936;51.006;13.764;2023-03-12T01:58:06;8;;;3;;
75342;SDS011;63936;51.006;13.764;2023-03-12T02:00:10;7;;;3;;
75342;SDS011;63936;51.006;13.764;2023-03-12T02:02:05;6;;;3;;
75342;SDS011;63936;51.006;13.764;2023-03-12T02:04:05;6;;;3;;
75342;SDS011;63936;51.006;13.764;2023-03-12T02:06:04;6;;;3;;
75342;SDS011;63936;51.006;13.764;2023-03-12T02:08:02;6;;;3;;
75342;SDS011;63936;51.006;13.764;2023-03-12T02:10:03;6;;;3;;
75342;SDS011;63936;51.006;13.764;2023-03-12T02:12:03;6;;;3;;
75342;SDS011;63936;51.006;13.764;2023-03-12T02:14:02;6;;;3;;
75342;SDS011;63936;51.006;13.764;2023-03-12T02:16:02;8;;;3;;
75342;SDS011;63936;51.006;13.764;2023-03-12T02:18:02;8;;;3;;
75342;SDS011;63936;51.006;13.764;2023-03-12T02:20:04;6;;;2;;
75342;SDS011;63936;51.006;13.764;2023-03-12T02:22:01;6;;;2;;
75342;SDS011;63936;51.006;13.764;2023-03-12T02:24:04;6;;;2;;
75342;SDS011;63936;51.006;13.764;2023-03-12T02:26:01;7;;;3;;
75342;SDS011;63936;51.006;13.764;2023-03-12T02:28:02;9;;;3;;
75342;SDS011;63936;51.006;13.764;2023-03-12T02:30:02;7;;;3;;
75342;SDS011;63936;51.006;13.764;2023-03-12T02:32:01;8;;;3;;
75342;SDS011;63936;51.006;13.764;2023-03-12T02:34:01;8;;;3;;
75342;SDS011;63936;51.006;13.764;2023-03-12T02:36:01;8;;;3;;
75342;SDS011;63936;51.006;13.764;2023-03-12T02:38:01;7;;;3;;
75342;SDS011;63936;51.006;13.764;2023-03-12T02:40:03;7;;;3;;
75342;SDS011;63936;51.006;13.764;2023-03-12T02:42:01;7;;;3;;
75342;SDS011;63936;51.006;13.764;2023-03-12T02:44:01;6;;;2;;
75342;SDS011;63936;51.006;13.764;2023-03-12T02:46:01;6;;;3;;
75342;SDS011;63936;51.006;13.764;2023-03-12T02:48:01;6;;;3;;
75342;SDS011;63936;51.006;13.764;2023-03-12T02:50:02;8;;;3;;
75342;SDS011;63936;51.006;13.764;2023-03-12T02:52:02;8;;;3;;
75342;SDS011;63936;51.006;13.764;2023-03-12T02:54:01;8;;;3;;
75342;SDS011;63936;51.006;13.764;2023-03-12T02:56:01;7;;;3;;
75342;SDS011;63936;51.006;13.764;2023-03-12T02:58:01;7;;;3;;
75342;SDS011;63936;51.006;13.764;2023-03-12T03:00:03;7;;;3;;
75342;SDS011;63936;51.006;13.764;2023-03-12T03:02:03;9;;;3;;
75342;SDS011;63936;51.006;13.764;2023-03-12T03:04:04;9;;;3;;
75342;SDS011;63936;51.006;13.764;2023-03-12T03:06:02;6;;;3;;
75342;SDS011;63936;51.006;13.764;2023-03-12T03:08:03;6;;;3;;
75342;SDS011;63936;51.006;13.764;2023-03-12T03:10:04;6;;;3;;
75342;SDS011;63936;51.006;13.764;2023-03-12T03:12:02;9;;;3;;
75342;SDS011;63936;51.006;13.764;2023-03-12T03:14:02;5;;;2;;
75342;SDS011;63936;51.006;13.764;2023-03-12T03:16:01;5;;;2;;
75342;SDS011;63936;51.006;13.764;2023-03-12T03:18:01;7;;;3;;
75342;SDS011;63936;51.006;13.764;2023-03-12T03:20:03;8;;;2;;
75342;SDS011;63936;51.006;13.764;2023-03-12T03:22:02;8;;;2;;
75342;SDS011;63936;51.006;13.764;2023-03-12T03:24:02;7;;;3;;
75342;SDS011;63936;51.006;13.764;2023-03-12T03:26:01;6;;;2;;
75342;SDS011;63936;51.006;13.764;2023-03-12T03:28:01;6;;;2;;
75342;SDS011;63936;51.006;13.764;2023-03-12T03:30:01;6;;;2;;
75342;SDS011;63936;51.006;13.764;2023-03-12T03:32:01;7;;;3;;
75342;SDS011;63936;51.006;13.764;2023-03-12T03:34:01;7;;;3;;
75342;SDS011;63936;51.006;13.764;2023-03-12T03:36:02;7;;;3;;
75342;SDS011;63936;51.006;13.764;2023-03-12T03:38:01;5;;;3;;
75342;SDS011;63936;51.006;13.764;2023-03-12T03:40:02;8;;;3;;
75342;SDS011;63936;51.006;13.764;2023-03-12T03:42:01;7;;;3;;
75342;SDS011;63936;51.006;13.764;2023-03-12T03:44:01;6;;;3;;
75342;SDS011;63936;51.006;13.764;2023-03-12T03:46:02;6;;;3;;
75342;SDS011;63936;51.006;13.764;2023-03-12T03:48:01;7;;;3;;
75342;SDS011;63936;51.006;13.764;2023-03-12T03:50:02;5;;;2;;
75342;SDS011;63936;51.006;13.764;2023-03-12T03:52:01;5;;;2;;
75342;SDS011;63936;51.006;13.764;2023-03-12T03:54:01;7;;;3;;
75342;SDS011;63936;51.006;13.764;2023-03-12T03:56:05;7;;;3;;
75342;SDS011;63936;51.006;13.764;2023-03-12T03:58:02;8;;;3;;
75342;SDS011;63936;51.006;13.764;2023-03-12T04:00:03;8;;;3;;
75342;SDS011;63936;51.006;13.764;2023-03-12T04:02:01;6;;;2;;
75342;SDS011;63936;51.006;13.764;2023-03-12T04:04:02;6;;;2;;
75342;SDS011;63936;51.006;13.764;2023-03-12T04:06:04;6;;;2;;
75342;SDS011;63936;51.006;13.764;2023-03-12T04:08:03;6;;;3;;
75342;SDS011;63936;51.006;13.764;2023-03-12T04:10:03;5;;;3;;
75342;SDS011;63936;51.006;13.764;2023-03-12T04:12:02;6;;;2;;
75342;SDS011;63936;51.006;13.764;2023-03-12T04:14:01;6;;;2;;
75342;SDS011;63936;51.006;13.764;2023-03-12T04:16:01;7;;;3;;
75342;SDS011;63936;51.006;13.764;2023-03-12T04:18:01;8;;;3;;
75342;SDS011;63936;51.006;13.764;2023-03-12T04:20:02;7;;;2;;
75342;SDS011;63936;51.006;13.764;2023-03-12T04:22:01;8;;;3;;
75342;SDS011;63936;51.006;13.764;2023-03-12T04:24:01;8;;;3;;
75342;SDS011;63936;51.006;13.764;2023-03-12T04:26:02;9;;;2;;
75342;SDS011;63936;51.006;13.764;2023-03-12T04:28:02;9;;;2;;
75342;SDS011;63936;51.006;13.764;2023-03-12T04:30:02;7;;;3;;
75342;SDS011;63936;51.006;13.764;2023-03-12T04:32:01;7;;;3;;
75342;SDS011;63936;51.006;13.764;2023-03-12T04:34:01;8;;;2;;
75342;SDS011;63936;51.006;13.764;2023-03-12T04:36:01;8;;;2;;
75342;SDS011;63936;51.006;13.764;2023-03-12T04:38:01;7;;;2;;
75342;SDS011;63936;51.006;13.764;2023-03-12T04:40:02;7;;;2;;
75342;SDS011;63936;51.006;13.764;2023-03-12T04:42:01;7;;;3;;
75342;SDS011;63936;51.006;13.764;2023-03-12T04:44:02;6;;;2;;
75342;SDS011;63936;51.006;13.764;2023-03-12T04:46:01;6;;;2;;
75342;SDS011;63936;51.006;13.764;2023-03-12T04:48:01;7;;;3;;
75342;SDS011;63936;51.006;13.764;2023-03-12T04:50:02;6;;;2;;
75342;SDS011;63936;51.006;13.764;2023-03-12T04:52:01;6;;;2;;
75342;SDS011;63936;51.006;13.764;2023-03-12T04:54:01;6;;;2;;
75342;SDS011;63936;51.006;13.764;2023-03-12T04:56:01;6;;;2;;
75342;SDS011;63936;51.006;13.764;2023-03-12T04:58:01;6;;;2;;
75342;SDS011;63936;51.006;13.764;2023-03-12T05:00:02;6;;;2;;
75342;SDS011;63936;51.006;13.764;2023-03-12T05:02:01;5;;;2;;
75342;SDS011;63936;51.006;13.764;2023-03-12T05:04:02;5;;;2;;
75342;SDS011;63936;51.006;13.764;2023-03-12T05:06:01;6;;;2;;
75342;SDS011;63936;51.006;13.764;2023-03-12T05:08:02;6;;;2;;
75342;SDS011;63936;51.006;13.764;2023-03-12T05:10:07;6;;;2;;
75342;SDS011;63936;51.006;13.764;2023-03-12T05:12:01;5;;;2;;
75342;SDS011;63936;51.006;13.764;2023-03-12T05:14:02;5;;;2;;
75342;SDS011;63936;51.006;13.764;2023-03-12T05:16:02;7;;;2;;
75342;SDS011;63936;51.006;13.764;2023-03-12T05:18:02;7;;;2;;
75342;SDS011;63936;51.006;13.764;2023-03-12T05:20:02;7;;;3;;
75342;SDS011;63936;51.006;13.764;2023-03-12T05:22:02;6;;;2;;
75342;SDS011;63936;51.006;13.764;2023-03-12T05:24:02;6;;;2;;
75342;SDS011;63936;51.006;13.764;2023-03-12T05:26:03;6;;;2;;
75342;SDS011;63936;51.006;13.764;2023-03-12T05:28:02;6;;;2;;
75342;SDS011;63936;51.006;13.764;2023-03-12T05:30:04;8;;;2;;
75342;SDS011;63936;51.006;13.764;2023-03-12T05:32:02;6;;;2;;
75342;SDS011;63936;51.006;13.764;2023-03-12T05:34:02;4;;;2;;
75342;SDS011;63936;51.006;13.764;2023-03-12T05:36:01;7;;;2;;
75342;SDS011;63936;51.006;13.764;2023-03-12T05:38:02;8;;;2;;
75342;SDS011;63936;51.006;13.764;2023-03-12T05:40:03;11;;;2;;
75342;SDS011;63936;51.006;13.764;2023-03-12T05:42:01;11;;;2;;
75342;SDS011;63936;51.006;13.764;2023-03-12T05:44:01;7;;;3;;
75342;SDS011;63936;51.006;13.764;2023-03-12T05:46:03;7;;;3;;
75342;SDS011;63936;51.006;13.764;2023-03-12T05:48:02;6;;;2;;
75342;SDS011;63936;51.006;13.764;2023-03-12T05:50:06;6;;;2;;
75342;SDS011;63936;51.006;13.764;2023-03-12T05:52:01;6;;;2;;
75342;SDS011;63936;51.006;13.764;2023-03-12T05:54:02;6;;;2;;
75342;SDS011;63936;51.006;13.764;2023-03-12T05:56:02;5;;;2;;
75342;SDS011;63936;51.006;13.764;2023-03-12T05:58:02;5;;;2;;
75342;SDS011;63936;51.006;13.764;2023-03-12T06:00:03;6;;;2;;
75342;SDS011;63936;51.006;13.764;2023-03-12T06:02:01;6;;;2;;
75342;SDS011;63936;51.006;13.764;2023-03-12T06:04:01;5;;;2;;
75342;SDS011;63936;51.006;13.764;2023-03-12T06:06:02;5;;;2;;
75342;SDS011;63936;51.006;13.764;2023-03-12T06:08:02;5;;;2;;
75342;SDS011;63936;51.006;13.764;2023-03-12T06:10:03;6;;;2;;
75342;SDS011;63936;51.006;13.764;2023-03-12T06:12:02;6;;;2;;
75342;SDS011;63936;51.006;13.764;2023-03-12T06:14:02;6;;;2;;
75342;SDS011;63936;51.006;13.764;2023-03-12T06:16:02;5;;;2;;
75342;SDS011;63936;51.006;13.764;2023-03-12T06:18:01;6;;;2;;
75342;SDS011;63936;51.006;13.764;2023-03-12T06:20:02;5;;;2;;
75342;SDS011;63936;51.006;13.764;2023-03-12T06:22:01;5;;;2;;
75342;SDS011;63936;51.006;13.764;2023-03-12T06:24:01;4;;;2;;
75342;SDS011;63936;51.006;13.764;2023-03-12T06:26:02;4;;;2;;
75342;SDS011;63936;51.006;13.764;2023-03-12T06:28:01;6;;;2;;
75342;SDS011;63936;51.006;13.764;2023-03-12T06:30:03;5;;;2;;
75342;SDS011;63936;51.006;13.764;2023-03-12T06:32:02;7;;;2;;
75342;SDS011;63936;51.006;13.764;2023-03-12T06:34:02;5;;;2;;
75342;SDS011;63936;51.006;13.764;2023-03-12T06:36:02;5;;;2;;
75342;SDS011;63936;51.006;13.764;2023-03-12T06:38:02;5;;;2;;
75342;SDS011;63936;51.006;13.764;2023-03-12T06:40:03;5;;;2;;
75342;SDS011;63936;51.006;13.764;2023-03-12T06:42:02;5;;;2;;
75342;SDS011;63936;51.006;13.764;2023-03-12T06:44:02;5;;;2;;
75342;SDS011;63936;51.006;13.764;2023-03-12T06:46:02;5;;;2;;
75342;SDS011;63936;51.006;13.764;2023-03-12T06:48:02;6;;;2;;
75342;SDS011;63936;51.006;13.764;2023-03-12T06:50:03;6;;;2;;
75342;SDS011;63936;51.006;13.764;2023-03-12T06:52:01;5;;;2;;
75342;SDS011;63936;51.006;13.764;2023-03-12T06:54:01;5;;;2;;
75342;SDS011;63936;51.006;13.764;2023-03-12T06:56:02;4;;;2;;
75342;SDS011;63936;51.006;13.764;2023-03-12T06:58:03;5;;;2;;
75342;SDS011;63936;51.006;13.764;2023-03-12T07:00:04;6;;;2;;
75342;SDS011;63936;51.006;13.764;2023-03-12T07:02:02;5;;;2;;
75342;SDS011;63936;51.006;13.764;2023-03-12T07:04:02;5;;;2;;
75342;SDS011;63936;51.006;13.764;2023-03-12T07:06:01;6;;;2;;
75342;SDS011;63936;51.006;13.764;2023-03-12T07:08:01;6;;;2;;
75342;SDS011;63936;51.006;13.764;2023-03-12T07:10:03;5;;;2;;
75342;SDS011;63936;51.006;13.764;2023-03-12T07:12:01;7;;;3;;
75342;SDS011;63936;51.006;13.764;2023-03-12T07:14:01;7;;;4;;
75342;SDS011;63936;51.006;13.764;2023-03-12T07:16:01;6;;;3;;
75342;SDS011;63936;51.006;13.764;2023-03-12T07:18:02;6;;;2;;
75342;SDS011;63936;51.006;13.764;2023-03-12T07:20:03;7;;;2;;
75342;SDS011;63936;51.006;13.764;2023-03-12T07:22:01;8;;;2;;
75342;SDS011;63936;51.006;13.764;2023-03-12T07:24:01;7;;;2;;
75342;SDS011;63936;51.006;13.764;2023-03-12T07:26:02;5;;;2;;
75342;SDS011;63936;51.006;13.764;2023-03-12T07:28:01;5;;;2;;
75342;SDS011;63936;51.006;13.764;2023-03-12T07:30:02;6;;;2;;
75342;SDS011;63936;51.006;13.764;2023-03-12T07:32:01;5;;;2;;
75342;SDS011;63936;51.006;13.764;2023-03-12T07:34:01;5;;;2;;
75342;SDS011;63936;51.006;13.764;2023-03-12T07:36:02;5;;;2;;
75342;SDS011;63936;51.006;13.764;2023-03-12T07:38:02;9;;;4;;
75342;SDS011;63936;51.006;13.764;2023-03-12T07:40:02;15;;;5;;
75342;SDS011;63936;51.006;13.764;2023-03-12T07:42:02;9;;;4;;
75342;SDS011;63936;51.006;13.764;2023-03-12T07:44:01;8;;;4;;
75342;SDS011;63936;51.006;13.764;2023-03-12T07:46:01;8;;;4;;
75342;SDS011;63936;51.006;13.764;2023-03-12T07:48:02;9;;;4;;
75342;SDS011;63936;51.006;13.764;2023-03-12T07:50:04;8;;;4;;
75342;SDS011;63936;51.006;13.764;2023-03-12T07:52:01;8;;;4;;
75342;SDS011;63936;51.006;13.764;2023-03-12T07:54:02;8;;;5;;
75342;SDS011;63936;51.006;13.764;2023-03-12T07:56:01;8;;;5;;
75342;SDS011;63936;51.006;13.764;2023-03-12T07:58:01;8;;;4;;
75342;SDS011;63936;51.006;13.764;2023-03-12T08:00:02;7;;;4;;
75342;SDS011;63936;51.006;13.764;2023-03-12T08:02:01;7;;;4;;
75342;SDS011;63936;51.006;13.764;2023-03-12T08:04:01;7;;;4;;
75342;SDS011;63936;51.006;13.764;2023-03-12T08:06:02;7;;;3;;
75342;SDS011;63936;51.006;13.764;2023-03-12T08:08:02;7;;;3;;
75342;SDS011;63936;51.006;13.764;2023-03-12T08:10:04;16;;;8;;
75342;SDS011;63936;51.006;13.764;2023-03-12T08:12:01;17;;;10;;
75342;SDS011;63936;51.006;13.764;2023-03-12T08:14:01;9;;;4;;
75342;SDS011;63936;51.006;13.764;2023-03-12T08:16:01;8;;;4;;
75342;SDS011;63936;51.006;13.764;2023-03-12T08:18:01;8;;;4;;
75342;SDS011;63936;51.006;13.764;2023-03-12T08:20:01;9;;;3;;
75342;SDS011;63936;51.006;13.764;2023-03-12T08:22:01;7;;;3;;
75342;SDS011;63936;51.006;13.764;2023-03-12T08:24:01;6;;;3;;
75342;SDS011;63936;51.006;13.764;2023-03-12T08:26:02;8;;;3;;
75342;SDS011;63936;51.006;13.764;2023-03-12T08:28:02;8;;;4;;
75342;SDS011;63936;51.006;13.764;2023-03-12T08:30:03;12;;;6;;
75342;SDS011;63936;51.006;13.764;2023-03-12T08:32:01;10;;;5;;
75342;SDS011;63936;51.006;13.764;2023-03-12T08:34:01;7;;;3;;
75342;SDS011;63936;51.006;13.764;2023-03-12T08:36:02;8;;;4;;
75342;SDS011;63936;51.006;13.764;2023-03-12T08:38:02;9;;;4;;
75342;SDS011;63936;51.006;13.764;2023-03-12T08:40:02;8;;;4;;
75342;SDS011;63936;51.006;13.764;2023-03-12T08:42:01;6;;;3;;
75342;SDS011;63936;51.006;13.764;2023-03-12T08:44:01;6;;;3;;
75342;SDS011;63936;51.006;13.764;2023-03-12T08:46:02;6;;;2;;
75342;SDS011;63936;51.006;13.764;2023-03-12T08:48:01;6;;;2;;
75342;SDS011;63936;51.006;13.764;2023-03-12T08:50:03;5;;;2;;
75342;SDS011;63936;51.006;13.764;2023-03-12T08:52:02;5;;;2;;
75342;SDS011;63936;51.006;13.764;2023-03-12T08:54:02;6;;;2;;
75342;SDS011;63936;51.006;13.764;2023-03-12T08:56:01;6;;;2;;
75342;SDS011;63936;51.006;13.764;2023-03-12T08:58:01;5;;;2;;
75342;SDS011;63936;51.006;13.764;2023-03-12T09:00:04;5;;;2;;
75342;SDS011;63936;51.006;13.764;2023-03-12T09:02:01;5;;;2;;
75342;SDS011;63936;51.006;13.764;2023-03-12T09:04:01;5;;;2;;
75342;SDS011;63936;51.006;13.764;2023-03-12T09:06:02;7;;;2;;
75342;SDS011;63936;51.006;13.764;2023-03-12T09:08:01;6;;;2;;
75342;SDS011;63936;51.006;13.764;2023-03-12T09:10:02;7;;;2;;
75342;SDS011;63936;51.006;13.764;2023-03-12T09:12:01;7;;;2;;
75342;SDS011;63936;51.006;13.764;2023-03-12T09:14:02;7;;;3;;
75342;SDS011;63936;51.006;13.764;2023-03-12T09:16:01;7;;;2;;
75342;SDS011;63936;51.006;13.764;2023-03-12T09:18:01;6;;;3;;
75342;SDS011;63936;51.006;13.764;2023-03-12T09:20:03;6;;;3;;
75342;SDS011;63936;51.006;13.764;2023-03-12T09:22:01;6;;;3;;
75342;SDS011;63936;51.006;13.764;2023-03-12T09:24:01;5;;;2;;
75342;SDS011;63936;51.006;13.764;2023-03-12T09:26:01;6;;;2;;
75342;SDS011;63936;51.006;13.764;2023-03-12T09:28:01;7;;;2;;
75342;SDS011;63936;51.006;13.764;2023-03-12T09:30:03;6;;;3;;
75342;SDS011;63936;51.006;13.764;2023-03-12T09:32:01;6;;;3;;
75342;SDS011;63936;51.006;13.764;2023-03-12T09:34:01;6;;;2;;
75342;SDS011;63936;51.006;13.764;2023-03-12T09:36:02;8;;;2;;
75342;SDS011;63936;51.006;13.764;2023-03-12T09:38:02;8;;;3;;
75342;SDS011;63936;51.006;13.764;2023-03-12T09:40:02;7;;;3;;
75342;SDS011;63936;51.006;13.764;2023-03-12T09:42:02;6;;;2;;
75342;SDS011;63936;51.006;13.764;2023-03-12T09:44:02;6;;;2;;
75342;SDS011;63936;51.006;13.764;2023-03-12T09:46:01;6;;;2;;
75342;SDS011;63936;51.006;13.764;2023-03-12T09:48:02;5;;;2;;
75342;SDS011;63936;51.006;13.764;2023-03-12T09:50:03;6;;;3;;
75342;SDS011;63936;51.006;13.764;2023-03-12T09:52:02;5;;;3;;
75342;SDS011;63936;51.006;13.764;2023-03-12T09:54:02;5;;;2;;
75342;SDS011;63936;51.006;13.764;2023-03-12T09:56:03;5;;;2;;
75342;SDS011;63936;51.006;13.764;2023-03-12T09:58:01;6;;;3;;
75342;SDS011;63936;51.006;13.764;2023-03-12T10:00:03;6;;;3;;
75342;SDS011;63936;51.006;13.764;2023-03-12T10:02:01;6;;;2;;
75342;SDS011;63936;51.006;13.764;2023-03-12T10:04:03;6;;;2;;
75342;SDS011;63936;51.006;13.764;2023-03-12T10:06:05;6;;;2;;
75342;SDS011;63936;51.006;13.764;2023-03-12T10:08:02;7;;;2;;
75342;SDS011;63936;51.006;13.764;2023-03-12T10:10:06;5;;;2;;
75342;SDS011;63936;51.006;13.764;2023-03-12T10:12:03;5;;;2;;
75342;SDS011;63936;51.006;13.764;2023-03-12T10:14:05;7;;;3;;
75342;SDS011;63936;51.006;13.764;2023-03-12T10:16:05;6;;;2;;
75342;SDS011;63936;51.006;13.764;2023-03-12T10:18:05;6;;;2;;
75342;SDS011;63936;51.006;13.764;2023-03-12T10:20:09;6;;;2;;
75342;SDS011;63936;51.006;13.764;2023-03-12T10:22:03;6;;;2;;
75342;SDS011;63936;51.006;13.764;2023-03-12T10:24:35;6;;;2;;
75342;SDS011;63936;51.006;13.764;2023-03-12T10:26:02;5;;;2;;
75342;SDS011;63936;51.006;13.764;2023-03-12T10:28:04;6;;;2;;
75342;SDS011;63936;51.006;13.764;2023-03-12T10:30:03;5;;;2;;
75342;SDS011;63936;51.006;13.764;2023-03-12T10:32:03;6;;;2;;
75342;SDS011;63936;51.006;13.764;2023-03-12T10:34:02;5;;;2;;
75342;SDS011;63936;51.006;13.764;2023-03-12T10:36:05;5;;;2;;
75342;SDS011;63936;51.006;13.764;2023-03-12T10:38:02;6;;;2;;
75342;SDS011;63936;51.006;13.764;2023-03-12T10:40:02;6;;;2;;
75342;SDS011;63936;51.006;13.764;2023-03-12T10:42:04;5;;;2;;
75342;SDS011;63936;51.006;13.764;2023-03-12T10:44:02;5;;;2;;
75342;SDS011;63936;51.006;13.764;2023-03-12T10:46:03;6;;;3;;
75342;SDS011;63936;51.006;13.764;2023-03-12T10:48:01;7;;;3;;
75342;SDS011;63936;51.006;13.764;2023-03-12T10:50:17;5;;;2;;
75342;SDS011;63936;51.006;13.764;2023-03-12T10:52:03;5;;;2;;
75342;SDS011;63936;51.006;13.764;2023-03-12T10:54:01;6;;;3;;
75342;SDS011;63936;51.006;13.764;2023-03-12T10:56:03;6;;;2;;
75342;SDS011;63936;51.006;13.764;2023-03-12T10:58:02;5;;;2;;
75342;SDS011;63936;51.006;13.764;2023-03-12T11:00:04;5;;;2;;
75342;SDS011;63936;51.006;13.764;2023-03-12T11:02:02;5;;;2;;
75342;SDS011;63936;51.006;13.764;2023-03-12T11:04:07;5;;;2;;
75342;SDS011;63936;51.006;13.764;2023-03-12T11:06:02;5;;;2;;
75342;SDS011;63936;51.006;13.764;2023-03-12T11:08:02;6;;;2;;
75342;SDS011;63936;51.006;13.764;2023-03-12T11:10:11;6;;;2;;
75342;SDS011;63936;51.006;13.764;2023-03-12T11:12:01;5;;;2;;
75342;SDS011;63936;51.006;13.764;2023-03-12T11:14:05;7;;;2;;
75342;SDS011;63936;51.006;13.764;2023-03-12T11:16:02;5;;;2;;
75342;SDS011;63936;51.006;13.764;2023-03-12T11:18:16;5;;;2;;
75342;SDS011;63936;51.006;13.764;2023-03-12T11:20:12;6;;;2;;
75342;SDS011;63936;51.006;13.764;2023-03-12T11:22:02;8;;;2;;
75342;SDS011;63936;51.006;13.764;2023-03-12T11:24:02;5;;;2;;
75342;SDS011;63936;51.006;13.764;2023-03-12T11:26:02;5;;;2;;
75342;SDS011;63936;51.006;13.764;2023-03-12T11:28:02;6;;;2;;
75342;SDS011;63936;51.006;13.764;2023-03-12T11:30:03;6;;;2;;
75342;SDS011;63936;51.006;13.764;2023-03-12T11:32:03;6;;;2;;
75342;SDS011;63936;51.006;13.764;2023-03-12T11:34:02;6;;;2;;
75342;SDS011;63936;51.006;13.764;2023-03-12T11:36:05;5;;;2;;
75342;SDS011;63936;51.006;13.764;2023-03-12T11:38:02;5;;;2;;
75342;SDS011;63936;51.006;13.764;2023-03-12T11:40:05;7;;;3;;
75342;SDS011;63936;51.006;13.764;2023-03-12T11:42:05;6;;;3;;
75342;SDS011;63936;51.006;13.764;2023-03-12T11:44:04;6;;;3;;
75342;SDS011;63936;51.006;13.764;2023-03-12T11:46:06;6;;;3;;
75342;SDS011;63936;51.006;13.764;2023-03-12T11:48:04;7;;;3;;
75342;SDS011;63936;51.006;13.764;2023-03-12T11:50:06;6;;;3;;
75342;SDS011;63936;51.006;13.764;2023-03-12T11:52:02;6;;;4;;
75342;SDS011;63936;51.006;13.764;2023-03-12T11:54:20;6;;;4;;
75342;SDS011;63936;51.006;13.764;2023-03-12T11:56:05;6;;;3;;
75342;SDS011;63936;51.006;13.764;2023-03-12T11:58:06;6;;;3;;
75342;SDS011;63936;51.006;13.764;2023-03-12T12:00:05;6;;;3;;
75342;SDS011;63936;51.006;13.764;2023-03-12T12:02:07;5;;;3;;
75342;SDS011;63936;51.006;13.764;2023-03-12T12:04:05;8;;;3;;
75342;SDS011;63936;51.006;13.764;2023-03-12T12:06:02;7;;;3;;
75342;SDS011;63936;51.006;13.764;2023-03-12T12:08:05;6;;;3;;
75342;SDS011;63936;51.006;13.764;2023-03-12T12:10:02;6;;;3;;
75342;SDS011;63936;51.006;13.764;2023-03-12T12:12:04;7;;;3;;
75342;SDS011;63936;51.006;13.764;2023-03-12T12:14:04;7;;;3;;
75342;SDS011;63936;51.006;13.764;2023-03-12T12:16:04;7;;;3;;
75342;SDS011;63936;51.006;13.764;2023-03-12T12:18:03;7;;;3;;
75342;SDS011;63936;51.006;13.764;2023-03-12T12:20:08;6;;;3;;
75342;SDS011;63936;51.006;13.764;2023-03-12T12:22:06;6;;;4;;
75342;SDS011;63936;51.006;13.764;2023-03-12T12:24:04;7;;;3;;
75342;SDS011;63936;51.006;13.764;2023-03-12T12:26:03;6;;;3;;
75342;SDS011;63936;51.006;13.764;2023-03-12T12:28:05;7;;;3;;
75342;SDS011;63936;51.006;13.764;2023-03-12T12:30:05;7;;;3;;
75342;SDS011;63936;51.006;13.764;2023-03-12T12:32:01;7;;;3;;
75342;SDS011;63936;51.006;13.764;2023-03-12T12:34:05;6;;;3;;
75342;SDS011;63936;51.006;13.764;2023-03-12T12:36:02;7;;;3;;
75342;SDS011;63936;51.006;13.764;2023-03-12T12:38:02;6;;;3;;
75342;SDS011;63936;51.006;13.764;2023-03-12T12:40:04;8;;;3;;
75342;SDS011;63936;51.006;13.764;2023-03-12T12:42:02;7;;;3;;
75342;SDS011;63936;51.006;13.764;2023-03-12T12:44:03;8;;;3;;
75342;SDS011;63936;51.006;13.764;2023-03-12T12:46:03;9;;;3;;
75342;SDS011;63936;51.006;13.764;2023-03-12T12:48:02;9;;;3;;
75342;SDS011;63936;51.006;13.764;2023-03-12T12:50:02;7;;;3;;
75342;SDS011;63936;51.006;13.764;2023-03-12T12:52:02;8;;;3;;
75342;SDS011;63936;51.006;13.764;2023-03-12T12:54:02;8;;;3;;
75342;SDS011;63936;51.006;13.764;2023-03-12T12:56:04;7;;;3;;
75342;SDS011;63936;51.006;13.764;2023-03-12T12:58:01;6;;;3;;
75342;SDS011;63936;51.006;13.764;2023-03-12T13:00:08;5;;;2;;